sensor_id;sensor_type;location;lat;lon;timestamp;pressure;altitude;pressure_sealevel;temperature;humidity
29941;BME280;16801;53.562;10.038;2023-04-16T00:01:55;101840.75;;;9.34;75.00
29941;BME280;16801;53.562;10.038;2023-04-16T00:05:16;101835.88;;;9.29;75.83
29941;BME280;16801;53.562;10.038;2023-04-16T00:08:38;101834.91;;;9.30;75.55
29941;BME280;16801;53.562;10.038;2023-04-16T00:12:02;101840.13;;;9.11;75.45
29941;BME280;16801;53.562;10.038;2023-04-16T00:15:23;101840.69;;;9.14;76.02
29941;BME280;16801;53.562;10.038;2023-04-16T00:18:44;101845.00;;;9.15;75.96
29941;BME280;16801;53.562;10.038;2023-04-16T00:22:05;101837.94;;;9.16;75.92
29941;BME280;16801;53.562;10.038;2023-04-16T00:25:27;101838.84;;;9.05;75.65
29941;BME280;16801;53.562;10.038;2023-04-16T00:28:48;101835.38;;;9.05;76.05
29941;BME280;16801;53.562;10.038;2023-04-16T00:32:11;101836.09;;;9.07;75.79
29941;BME280;16801;53.562;10.038;2023-04-16T00:35:33;101834.97;;;9.00;76.26
29941;BME280;16801;53.562;10.038;2023-04-16T00:38:55;101839.41;;;8.99;76.07
29941;BME280;16801;53.562;10.038;2023-04-16T00:42:20;101841.09;;;9.00;76.16
29941;BME280;16801;53.562;10.038;2023-04-16T00:45:40;101844.81;;;8.98;76.07
29941;BME280;16801;53.562;10.038;2023-04-16T00:49:02;101842.44;;;8.95;75.83
29941;BME280;16801;53.562;10.038;2023-04-16T00:52:26;101838.00;;;8.95;75.80
29941;BME280;16801;53.562;10.038;2023-04-16T00:55:48;101840.78;;;8.94;76.00
29941;BME280;16801;53.562;10.038;2023-04-16T00:59:11;101838.00;;;8.95;75.75
29941;BME280;16801;53.562;10.038;2023-04-16T01:02:32;101828.75;;;9.01;75.72
29941;BME280;16801;53.562;10.038;2023-04-16T01:05:54;101831.91;;;9.04;75.81
29941;BME280;16801;53.562;10.038;2023-04-16T01:09:15;101833.06;;;9.02;75.07
29941;BME280;16801;53.562;10.038;2023-04-16T01:12:36;101841.34;;;9.07;75.42
29941;BME280;16801;53.562;10.038;2023-04-16T01:15:58;101844.69;;;9.09;74.66
29941;BME280;16801;53.562;10.038;2023-04-16T01:19:20;101841.09;;;9.10;74.86
29941;BME280;16801;53.562;10.038;2023-04-16T01:22:42;101848.19;;;9.19;74.89
29941;BME280;16801;53.562;10.038;2023-04-16T01:26:03;101850.97;;;9.17;74.19
29941;BME280;16801;53.562;10.038;2023-04-16T01:29:24;101855.28;;;9.18;74.19
29941;BME280;16801;53.562;10.038;2023-04-16T01:32:49;101859.56;;;9.19;74.39
29941;BME280;16801;53.562;10.038;2023-04-16T01:36:10;101861.69;;;9.25;74.19
29941;BME280;16801;53.562;10.038;2023-04-16T01:39:32;101863.03;;;9.30;73.87
29941;BME280;16801;53.562;10.038;2023-04-16T01:42:53;101866.94;;;9.35;73.35
29941;BME280;16801;53.562;10.038;2023-04-16T01:46:17;101873.31;;;9.33;73.66
29941;BME280;16801;53.562;10.038;2023-04-16T01:49:39;101872.47;;;9.32;72.92
29941;BME280;16801;53.562;10.038;2023-04-16T01:53:01;101872.91;;;9.37;73.18
29941;BME280;16801;53.562;10.038;2023-04-16T01:56:25;101879.03;;;9.38;72.71
29941;BME280;16801;53.562;10.038;2023-04-16T01:59:47;101877.09;;;9.40;72.41
29941;BME280;16801;53.562;10.038;2023-04-16T02:03:09;101882.94;;;9.43;72.69
29941;BME280;16801;53.562;10.038;2023-04-16T02:06:30;101885.44;;;9.45;73.05
29941;BME280;16801;53.562;10.038;2023-04-16T02:09:51;101891.41;;;9.47;72.77
29941;BME280;16801;53.562;10.038;2023-04-16T02:13:15;101882.22;;;9.51;72.48
29941;BME280;16801;53.562;10.038;2023-04-16T02:16:39;101903.31;;;9.51;72.16
29941;BME280;16801;53.562;10.038;2023-04-16T02:20:27;101891.94;;;9.50;72.47
29941;BME280;16801;53.562;10.038;2023-04-16T02:23:52;101886.41;;;9.53;72.31
29941;BME280;16801;53.562;10.038;2023-04-16T02:27:19;101894.16;;;9.55;71.83
29941;BME280;16801;53.562;10.038;2023-04-16T02:30:44;101892.06;;;9.49;72.54
29941;BME280;16801;53.562;10.038;2023-04-16T02:34:07;101900.66;;;9.41;72.50
29941;BME280;16801;53.562;10.038;2023-04-16T02:37:28;101896.38;;;9.40;72.83
29941;BME280;16801;53.562;10.038;2023-04-16T02:40:49;101897.06;;;9.42;73.22
29941;BME280;16801;53.562;10.038;2023-04-16T02:44:10;101896.25;;;9.42;73.25
29941;BME280;16801;53.562;10.038;2023-04-16T02:47:34;101893.47;;;9.43;73.00
29941;BME280;16801;53.562;10.038;2023-04-16T02:50:55;101896.38;;;9.50;72.90
29941;BME280;16801;53.562;10.038;2023-04-16T02:54:16;101900.97;;;9.48;72.95
29941;BME280;16801;53.562;10.038;2023-04-16T02:57:36;101897.22;;;9.50;72.93
29941;BME280;16801;53.562;10.038;2023-04-16T03:00:57;101901.38;;;9.53;72.72
29941;BME280;16801;53.562;10.038;2023-04-16T03:04:19;101903.03;;;9.54;72.65
29941;BME280;16801;53.562;10.038;2023-04-16T03:07:40;101904.19;;;9.61;72.25
29941;BME280;16801;53.562;10.038;2023-04-16T03:11:06;101900.28;;;9.55;72.86
29941;BME280;16801;53.562;10.038;2023-04-16T03:14:27;101906.81;;;9.61;72.92
29941;BME280;16801;53.562;10.038;2023-04-16T03:17:48;101907.25;;;9.66;72.72
29941;BME280;16801;53.562;10.038;2023-04-16T03:21:10;101915.28;;;9.65;72.71
29941;BME280;16801;53.562;10.038;2023-04-16T03:24:31;101914.31;;;9.66;72.98
29941;BME280;16801;53.562;10.038;2023-04-16T03:27:52;101915.84;;;9.68;72.80
29941;BME280;16801;53.562;10.038;2023-04-16T03:31:13;101911.41;;;9.69;72.50
29941;BME280;16801;53.562;10.038;2023-04-16T03:34:34;101918.22;;;9.71;72.88
29941;BME280;16801;53.562;10.038;2023-04-16T03:37:57;101921.00;;;9.70;72.99
29941;BME280;16801;53.562;10.038;2023-04-16T03:41:18;101912.13;;;9.71;72.98
29941;BME280;16801;53.562;10.038;2023-04-16T03:44:39;101919.19;;;9.70;73.13
29941;BME280;16801;53.562;10.038;2023-04-16T03:48:04;101917.22;;;9.72;73.34
29941;BME280;16801;53.562;10.038;2023-04-16T03:51:25;101922.22;;;9.75;73.00
29941;BME280;16801;53.562;10.038;2023-04-16T03:54:47;101920.03;;;9.71;73.22
29941;BME280;16801;53.562;10.038;2023-04-16T03:58:18;101923.50;;;9.71;73.19
29941;BME280;16801;53.562;10.038;2023-04-16T04:01:40;101914.59;;;9.72;73.58
29941;BME280;16801;53.562;10.038;2023-04-16T04:05:01;101917.09;;;9.74;73.60
29941;BME280;16801;53.562;10.038;2023-04-16T04:08:24;101920.56;;;9.74;73.72
29941;BME280;16801;53.562;10.038;2023-04-16T04:11:49;101920.44;;;9.76;73.63
29941;BME280;16801;53.562;10.038;2023-04-16T04:15:10;101919.03;;;9.72;74.08
29941;BME280;16801;53.562;10.038;2023-04-16T04:18:31;101924.16;;;9.73;74.06
29941;BME280;16801;53.562;10.038;2023-04-16T04:21:53;101925.84;;;9.74;73.56
29941;BME280;16801;53.562;10.038;2023-04-16T04:25:15;101934.56;;;9.75;73.38
29941;BME280;16801;53.562;10.038;2023-04-16T04:28:37;101939.16;;;9.73;73.80
29941;BME280;16801;53.562;10.038;2023-04-16T04:31:58;101938.19;;;9.74;73.93
29941;BME280;16801;53.562;10.038;2023-04-16T04:35:19;101950.53;;;9.73;73.91
29941;BME280;16801;53.562;10.038;2023-04-16T04:38:41;101950.66;;;9.72;73.87
29941;BME280;16801;53.562;10.038;2023-04-16T04:42:02;101948.47;;;9.77;73.85
29941;BME280;16801;53.562;10.038;2023-04-16T04:45:24;101954.97;;;9.73;73.52
29941;BME280;16801;53.562;10.038;2023-04-16T04:48:46;101946.94;;;9.65;74.13
29941;BME280;16801;53.562;10.038;2023-04-16T04:52:09;101949.69;;;9.63;73.98
29941;BME280;16801;53.562;10.038;2023-04-16T04:55:30;101951.31;;;9.54;74.41
29941;BME280;16801;53.562;10.038;2023-04-16T04:58:51;101950.41;;;9.65;74.13
29941;BME280;16801;53.562;10.038;2023-04-16T05:02:14;101950.66;;;9.72;74.15
29941;BME280;16801;53.562;10.038;2023-04-16T05:05:35;101950.00;;;9.79;73.55
29941;BME280;16801;53.562;10.038;2023-04-16T05:08:56;101960.28;;;9.82;74.10
29941;BME280;16801;53.562;10.038;2023-04-16T05:12:17;101956.13;;;9.89;73.92
29941;BME280;16801;53.562;10.038;2023-04-16T05:15:38;101969.59;;;9.96;73.32
29941;BME280;16801;53.562;10.038;2023-04-16T05:19:00;101962.81;;;9.93;73.39
29941;BME280;16801;53.562;10.038;2023-04-16T05:22:21;101969.44;;;9.88;73.28
29941;BME280;16801;53.562;10.038;2023-04-16T05:25:42;101966.25;;;9.84;73.47
29941;BME280;16801;53.562;10.038;2023-04-16T05:29:03;101972.66;;;9.91;73.30
29941;BME280;16801;53.562;10.038;2023-04-16T05:32:26;101972.91;;;9.98;73.32
29941;BME280;16801;53.562;10.038;2023-04-16T05:35:48;101981.00;;;10.06;72.98
29941;BME280;16801;53.562;10.038;2023-04-16T05:39:09;101990.72;;;10.06;72.90
29941;BME280;16801;53.562;10.038;2023-04-16T05:42:30;101994.06;;;10.08;73.05
29941;BME280;16801;53.562;10.038;2023-04-16T05:45:51;101984.34;;;10.08;73.25
29941;BME280;16801;53.562;10.038;2023-04-16T05:49:12;101996.13;;;10.04;73.04
29941;BME280;16801;53.562;10.038;2023-04-16T05:52:34;101999.44;;;9.97;73.39
29941;BME280;16801;53.562;10.038;2023-04-16T05:55:55;102001.53;;;10.03;73.52
29941;BME280;16801;53.562;10.038;2023-04-16T05:59:15;102009.44;;;10.03;73.16
29941;BME280;16801;53.562;10.038;2023-04-16T06:02:36;102013.09;;;10.11;73.20
29941;BME280;16801;53.562;10.038;2023-04-16T06:05:57;102006.13;;;10.10;73.09
29941;BME280;16801;53.562;10.038;2023-04-16T06:09:19;102009.31;;;10.04;73.09
29941;BME280;16801;53.562;10.038;2023-04-16T06:12:40;102020.88;;;10.13;73.09
29941;BME280;16801;53.562;10.038;2023-04-16T06:16:01;102016.16;;;10.16;73.27
29941;BME280;16801;53.562;10.038;2023-04-16T06:19:21;102014.06;;;10.20;72.76
29941;BME280;16801;53.562;10.038;2023-04-16T06:22:42;102013.41;;;10.27;72.25
29941;BME280;16801;53.562;10.038;2023-04-16T06:26:05;102023.00;;;10.28;72.36
29941;BME280;16801;53.562;10.038;2023-04-16T06:29:26;102017.31;;;10.33;72.16
29941;BME280;16801;53.562;10.038;2023-04-16T06:32:48;102020.91;;;10.42;71.96
29941;BME280;16801;53.562;10.038;2023-04-16T06:36:09;102026.59;;;10.47;71.65
29941;BME280;16801;53.562;10.038;2023-04-16T06:39:30;102034.66;;;10.45;71.71
29941;BME280;16801;53.562;10.038;2023-04-16T06:42:53;102034.66;;;10.45;71.63
29941;BME280;16801;53.562;10.038;2023-04-16T06:46:13;102033.81;;;10.45;71.53
29941;BME280;16801;53.562;10.038;2023-04-16T06:49:34;102036.19;;;10.48;71.57
29941;BME280;16801;53.562;10.038;2023-04-16T06:52:55;102037.84;;;10.49;71.51
29941;BME280;16801;53.562;10.038;2023-04-16T06:56:16;102043.00;;;10.50;71.27
29941;BME280;16801;53.562;10.038;2023-04-16T06:59:38;102041.91;;;10.53;71.63
29941;BME280;16801;53.562;10.038;2023-04-16T07:03:00;102048.28;;;10.60;71.10
29941;BME280;16801;53.562;10.038;2023-04-16T07:06:21;102050.09;;;10.69;70.92
29941;BME280;16801;53.562;10.038;2023-04-16T07:09:42;102053.00;;;10.76;70.63
29941;BME280;16801;53.562;10.038;2023-04-16T07:13:03;102054.97;;;10.83;70.04
29941;BME280;16801;53.562;10.038;2023-04-16T07:16:25;102053.81;;;10.86;69.87
29941;BME280;16801;53.562;10.038;2023-04-16T07:19:46;102059.66;;;10.89;70.00
29941;BME280;16801;53.562;10.038;2023-04-16T07:23:06;102064.06;;;11.08;69.49
29941;BME280;16801;53.562;10.038;2023-04-16T07:26:27;102064.09;;;10.99;68.93
29941;BME280;16801;53.562;10.038;2023-04-16T07:29:51;102063.28;;;10.98;69.19
29941;BME280;16801;53.562;10.038;2023-04-16T07:33:14;102061.19;;;11.02;69.34
29941;BME280;16801;53.562;10.038;2023-04-16T07:36:36;102070.66;;;11.04;69.38
29941;BME280;16801;53.562;10.038;2023-04-16T07:39:57;102078.44;;;11.06;68.93
29941;BME280;16801;53.562;10.038;2023-04-16T07:43:19;102073.28;;;11.04;68.85
29941;BME280;16801;53.562;10.038;2023-04-16T07:46:39;102076.25;;;11.38;74.27
29941;BME280;16801;53.562;10.038;2023-04-16T07:50:02;102068.03;;;11.88;72.48
29941;BME280;16801;53.562;10.038;2023-04-16T07:53:23;102080.03;;;11.82;70.69
29941;BME280;16801;53.562;10.038;2023-04-16T07:56:44;102081.63;;;12.20;72.04
29941;BME280;16801;53.562;10.038;2023-04-16T08:00:06;102078.78;;;12.49;73.46
29941;BME280;16801;53.562;10.038;2023-04-16T08:03:33;102083.50;;;12.55;66.48
29941;BME280;16801;53.562;10.038;2023-04-16T08:06:55;102091.25;;;13.10;69.00
29941;BME280;16801;53.562;10.038;2023-04-16T08:10:16;102089.75;;;13.08;71.91
29941;BME280;16801;53.562;10.038;2023-04-16T08:13:37;102095.44;;;12.95;67.86
29941;BME280;16801;53.562;10.038;2023-04-16T08:16:58;102092.53;;;13.50;69.00
29941;BME280;16801;53.562;10.038;2023-04-16T08:20:19;102092.53;;;13.84;64.22
29941;BME280;16801;53.562;10.038;2023-04-16T08:23:41;102100.69;;;13.56;64.45
29941;BME280;16801;53.562;10.038;2023-04-16T08:27:02;102102.66;;;13.11;60.98
29941;BME280;16801;53.562;10.038;2023-04-16T08:30:23;102105.22;;;12.59;62.21
29941;BME280;16801;53.562;10.038;2023-04-16T08:33:43;102112.25;;;12.50;63.05
29941;BME280;16801;53.562;10.038;2023-04-16T08:37:04;102114.34;;;12.47;63.53
29941;BME280;16801;53.562;10.038;2023-04-16T08:40:27;102116.97;;;12.29;63.79
29941;BME280;16801;53.562;10.038;2023-04-16T08:43:49;102123.63;;;12.15;63.84
29941;BME280;16801;53.562;10.038;2023-04-16T08:47:14;102129.59;;;12.17;64.36
29941;BME280;16801;53.562;10.038;2023-04-16T08:50:35;102128.50;;;12.10;63.93
29941;BME280;16801;53.562;10.038;2023-04-16T08:54:00;102131.44;;;12.07;64.35
29941;BME280;16801;53.562;10.038;2023-04-16T08:57:27;102129.50;;;11.99;64.93
29941;BME280;16801;53.562;10.038;2023-04-16T09:00:50;102132.13;;;12.09;65.02
29941;BME280;16801;53.562;10.038;2023-04-16T09:04:12;102128.28;;;12.21;64.32
29941;BME280;16801;53.562;10.038;2023-04-16T09:07:35;102132.72;;;12.03;64.78
29941;BME280;16801;53.562;10.038;2023-04-16T09:10:57;102127.00;;;11.98;65.36
29941;BME280;16801;53.562;10.038;2023-04-16T09:14:20;102129.28;;;11.93;65.30
29941;BME280;16801;53.562;10.038;2023-04-16T09:17:41;102131.38;;;11.89;65.13
29941;BME280;16801;53.562;10.038;2023-04-16T09:21:02;102131.84;;;12.12;64.75
29941;BME280;16801;53.562;10.038;2023-04-16T09:24:24;102136.09;;;12.23;64.21
29941;BME280;16801;53.562;10.038;2023-04-16T09:27:48;102152.09;;;12.31;63.70
29941;BME280;16801;53.562;10.038;2023-04-16T09:31:12;102147.94;;;12.46;63.60
29941;BME280;16801;53.562;10.038;2023-04-16T09:34:34;102157.69;;;12.46;63.25
29941;BME280;16801;53.562;10.038;2023-04-16T09:37:56;102149.13;;;12.34;64.11
29941;BME280;16801;53.562;10.038;2023-04-16T09:41:18;102153.63;;;12.51;64.11
29941;BME280;16801;53.562;10.038;2023-04-16T09:44:39;102154.63;;;12.50;63.62
29941;BME280;16801;53.562;10.038;2023-04-16T09:48:05;102157.66;;;12.73;62.76
29941;BME280;16801;53.562;10.038;2023-04-16T09:51:26;102169.53;;;12.69;63.29
29941;BME280;16801;53.562;10.038;2023-04-16T09:54:56;102168.03;;;12.66;62.89
29941;BME280;16801;53.562;10.038;2023-04-16T09:58:17;102168.34;;;12.63;62.71
29941;BME280;16801;53.562;10.038;2023-04-16T10:01:38;102167.66;;;12.61;62.87
29941;BME280;16801;53.562;10.038;2023-04-16T10:05:01;102177.50;;;12.69;62.89
29941;BME280;16801;53.562;10.038;2023-04-16T10:08:22;102170.56;;;13.04;62.05
29941;BME280;16801;53.562;10.038;2023-04-16T10:11:44;102169.44;;;13.24;61.57
29941;BME280;16801;53.562;10.038;2023-04-16T10:15:06;102176.03;;;13.20;60.74
29941;BME280;16801;53.562;10.038;2023-04-16T10:18:27;102178.53;;;13.21;60.52
29941;BME280;16801;53.562;10.038;2023-04-16T10:21:50;102178.91;;;13.26;61.15
29941;BME280;16801;53.562;10.038;2023-04-16T10:25:11;102170.56;;;13.21;60.88
29941;BME280;16801;53.562;10.038;2023-04-16T10:28:33;102174.78;;;13.50;60.29
29941;BME280;16801;53.562;10.038;2023-04-16T10:31:55;102179.94;;;13.51;59.71
29941;BME280;16801;53.562;10.038;2023-04-16T10:35:18;102180.75;;;13.52;60.88
29941;BME280;16801;53.562;10.038;2023-04-16T10:38:44;102192.00;;;13.28;62.28
29941;BME280;16801;53.562;10.038;2023-04-16T10:42:06;102197.38;;;13.18;62.67
29941;BME280;16801;53.562;10.038;2023-04-16T10:45:31;102193.28;;;13.42;62.18
29941;BME280;16801;53.562;10.038;2023-04-16T10:48:59;102200.31;;;13.51;61.60
29941;BME280;16801;53.562;10.038;2023-04-16T10:52:21;102198.00;;;13.56;61.10
29941;BME280;16801;53.562;10.038;2023-04-16T10:55:56;102191.38;;;13.52;60.79
29941;BME280;16801;53.562;10.038;2023-04-16T10:59:18;102204.25;;;13.47;61.13
29941;BME280;16801;53.562;10.038;2023-04-16T11:02:39;102207.63;;;13.57;61.41
29941;BME280;16801;53.562;10.038;2023-04-16T11:06:11;102203.47;;;13.72;60.59
29941;BME280;16801;53.562;10.038;2023-04-16T11:09:56;102206.50;;;13.59;60.47
29941;BME280;16801;53.562;10.038;2023-04-16T11:13:19;102206.78;;;13.30;60.95
29941;BME280;16801;53.562;10.038;2023-04-16T11:16:40;102208.72;;;13.11;61.44
29941;BME280;16801;53.562;10.038;2023-04-16T11:20:02;102208.50;;;12.86;62.09
29941;BME280;16801;53.562;10.038;2023-04-16T11:23:23;102215.06;;;12.82;62.59
29941;BME280;16801;53.562;10.038;2023-04-16T11:26:44;102219.34;;;12.65;62.99
29941;BME280;16801;53.562;10.038;2023-04-16T11:30:07;102219.03;;;12.68;63.30
29941;BME280;16801;53.562;10.038;2023-04-16T11:33:30;102220.56;;;12.71;63.23
29941;BME280;16801;53.562;10.038;2023-04-16T11:36:51;102218.53;;;12.65;63.37
29941;BME280;16801;53.562;10.038;2023-04-16T11:40:12;102214.38;;;12.62;63.55
29941;BME280;16801;53.562;10.038;2023-04-16T11:43:33;102221.81;;;12.49;64.08
29941;BME280;16801;53.562;10.038;2023-04-16T11:46:55;102215.94;;;12.55;63.56
29941;BME280;16801;53.562;10.038;2023-04-16T11:50:19;102223.97;;;12.63;63.40
29941;BME280;16801;53.562;10.038;2023-04-16T11:53:50;102228.47;;;12.53;62.86
29941;BME280;16801;53.562;10.038;2023-04-16T11:57:11;102231.47;;;12.68;63.40
29941;BME280;16801;53.562;10.038;2023-04-16T12:00:33;102229.44;;;12.80;62.86
29941;BME280;16801;53.562;10.038;2023-04-16T12:04:00;102230.00;;;12.83;62.27
29941;BME280;16801;53.562;10.038;2023-04-16T12:07:25;102231.66;;;12.84;62.52
29941;BME280;16801;53.562;10.038;2023-04-16T12:10:52;102240.59;;;12.83;62.59
29941;BME280;16801;53.562;10.038;2023-04-16T12:14:14;102244.63;;;12.60;63.21
29941;BME280;16801;53.562;10.038;2023-04-16T12:17:36;102247.34;;;12.68;63.30
29941;BME280;16801;53.562;10.038;2023-04-16T12:21:03;102251.47;;;12.53;63.17
29941;BME280;16801;53.562;10.038;2023-04-16T12:24:24;102253.56;;;12.59;62.74
29941;BME280;16801;53.562;10.038;2023-04-16T12:27:47;102254.47;;;12.67;62.87
29941;BME280;16801;53.562;10.038;2023-04-16T12:31:09;102251.09;;;12.75;63.13
29941;BME280;16801;53.562;10.038;2023-04-16T12:34:30;102257.13;;;12.67;62.42
29941;BME280;16801;53.562;10.038;2023-04-16T12:37:55;102250.22;;;12.84;62.20
29941;BME280;16801;53.562;10.038;2023-04-16T12:41:15;102251.22;;;13.01;61.61
29941;BME280;16801;53.562;10.038;2023-04-16T12:44:36;102253.56;;;13.04;61.33
29941;BME280;16801;53.562;10.038;2023-04-16T12:47:57;102245.53;;;12.96;61.25
29941;BME280;16801;53.562;10.038;2023-04-16T12:51:19;102252.63;;;12.95;61.46
29941;BME280;16801;53.562;10.038;2023-04-16T12:54:41;102243.97;;;12.76;62.01
29941;BME280;16801;53.562;10.038;2023-04-16T12:58:02;102246.53;;;12.67;61.98
29941;BME280;16801;53.562;10.038;2023-04-16T13:01:23;102245.66;;;12.77;64.25
29941;BME280;16801;53.562;10.038;2023-04-16T13:04:44;102248.31;;;12.94;63.99
29941;BME280;16801;53.562;10.038;2023-04-16T13:08:05;102247.56;;;13.02;63.78
29941;BME280;16801;53.562;10.038;2023-04-16T13:11:27;102253.88;;;13.01;62.95
29941;BME280;16801;53.562;10.038;2023-04-16T13:14:48;102251.25;;;12.91;62.50
29941;BME280;16801;53.562;10.038;2023-04-16T13:18:08;102257.69;;;12.89;63.12
29941;BME280;16801;53.562;10.038;2023-04-16T13:21:29;102266.72;;;12.96;64.03
29941;BME280;16801;53.562;10.038;2023-04-16T13:24:50;102264.75;;;12.98;63.97
29941;BME280;16801;53.562;10.038;2023-04-16T13:28:13;102266.41;;;12.81;62.49
29941;BME280;16801;53.562;10.038;2023-04-16T13:31:34;102274.16;;;12.65;62.82
29941;BME280;16801;53.562;10.038;2023-04-16T13:34:55;102274.63;;;12.51;62.67
29941;BME280;16801;53.562;10.038;2023-04-16T13:38:16;102270.44;;;12.48;63.13
29941;BME280;16801;53.562;10.038;2023-04-16T13:41:37;102267.94;;;12.47;63.12
29941;BME280;16801;53.562;10.038;2023-04-16T13:45:00;102272.06;;;12.31;62.97
29941;BME280;16801;53.562;10.038;2023-04-16T13:48:21;102269.91;;;12.45;63.16
29941;BME280;16801;53.562;10.038;2023-04-16T13:51:42;102271.06;;;12.42;63.67
29941;BME280;16801;53.562;10.038;2023-04-16T13:55:03;102259.31;;;12.45;63.34
29941;BME280;16801;53.562;10.038;2023-04-16T13:58:25;102262.47;;;12.58;63.13
29941;BME280;16801;53.562;10.038;2023-04-16T14:01:47;102262.88;;;12.63;63.10
29941;BME280;16801;53.562;10.038;2023-04-16T14:05:08;102256.41;;;12.65;62.97
29941;BME280;16801;53.562;10.038;2023-04-16T14:08:29;102259.44;;;12.80;62.66
29941;BME280;16801;53.562;10.038;2023-04-16T14:11:50;102258.66;;;12.88;62.45
29941;BME280;16801;53.562;10.038;2023-04-16T14:15:11;102261.78;;;12.83;62.47
29941;BME280;16801;53.562;10.038;2023-04-16T14:18:35;102263.94;;;12.70;63.11
29941;BME280;16801;53.562;10.038;2023-04-16T14:22:00;102267.56;;;12.69;63.21
29941;BME280;16801;53.562;10.038;2023-04-16T14:25:22;102267.22;;;12.54;63.09
29941;BME280;16801;53.562;10.038;2023-04-16T14:28:43;102269.59;;;12.57;63.05
29941;BME280;16801;53.562;10.038;2023-04-16T14:32:05;102265.22;;;12.66;62.88
29941;BME280;16801;53.562;10.038;2023-04-16T14:35:27;102272.94;;;12.59;63.05
29941;BME280;16801;53.562;10.038;2023-04-16T14:38:48;102272.94;;;12.59;63.43
29941;BME280;16801;53.562;10.038;2023-04-16T14:42:08;102266.94;;;12.57;63.74
29941;BME280;16801;53.562;10.038;2023-04-16T14:45:29;102271.88;;;12.43;63.78
29941;BME280;16801;53.562;10.038;2023-04-16T14:48:50;102276.59;;;12.49;63.80
29941;BME280;16801;53.562;10.038;2023-04-16T14:52:13;102278.25;;;12.50;70.19
29941;BME280;16801;53.562;10.038;2023-04-16T14:55:34;102269.19;;;13.07;69.70
29941;BME280;16801;53.562;10.038;2023-04-16T14:58:54;102271.31;;;13.39;64.91
29941;BME280;16801;53.562;10.038;2023-04-16T15:02:16;102270.31;;;13.05;62.45
29941;BME280;16801;53.562;10.038;2023-04-16T15:05:45;102282.47;;;12.70;62.58
29941;BME280;16801;53.562;10.038;2023-04-16T15:09:09;102290.44;;;12.70;62.87
29941;BME280;16801;53.562;10.038;2023-04-16T15:12:30;102284.00;;;12.73;63.13
29941;BME280;16801;53.562;10.038;2023-04-16T15:15:51;102283.47;;;12.69;63.22
29941;BME280;16801;53.562;10.038;2023-04-16T15:19:12;102281.16;;;12.56;63.59
29941;BME280;16801;53.562;10.038;2023-04-16T15:22:34;102279.94;;;12.51;64.00
29941;BME280;16801;53.562;10.038;2023-04-16T15:25:55;102281.75;;;12.50;63.99
29941;BME280;16801;53.562;10.038;2023-04-16T15:29:16;102287.84;;;12.60;64.16
29941;BME280;16801;53.562;10.038;2023-04-16T15:32:37;102286.47;;;12.56;64.45
29941;BME280;16801;53.562;10.038;2023-04-16T15:35:58;102282.69;;;12.59;64.02
29941;BME280;16801;53.562;10.038;2023-04-16T15:39:20;102288.91;;;12.67;64.33
29941;BME280;16801;53.562;10.038;2023-04-16T15:42:42;102288.75;;;12.69;64.13
29941;BME280;16801;53.562;10.038;2023-04-16T15:46:03;102286.38;;;12.76;64.12
29941;BME280;16801;53.562;10.038;2023-04-16T15:49:24;102283.88;;;12.74;63.77
29941;BME280;16801;53.562;10.038;2023-04-16T15:52:45;102285.00;;;12.72;63.95
29941;BME280;16801;53.562;10.038;2023-04-16T15:56:07;102293.22;;;12.68;63.90
29941;BME280;16801;53.562;10.038;2023-04-16T15:59:28;102296.16;;;12.65;64.07
29941;BME280;16801;53.562;10.038;2023-04-16T16:02:48;102292.44;;;12.58;63.65
29941;BME280;16801;53.562;10.038;2023-04-16T16:06:10;102296.38;;;12.54;64.09
29941;BME280;16801;53.562;10.038;2023-04-16T16:09:31;102307.22;;;12.61;63.95
29941;BME280;16801;53.562;10.038;2023-04-16T16:12:53;102306.47;;;12.68;63.88
29941;BME280;16801;53.562;10.038;2023-04-16T16:16:15;102306.09;;;12.63;63.61
29941;BME280;16801;53.562;10.038;2023-04-16T16:19:36;102300.25;;;12.60;63.74
29941;BME280;16801;53.562;10.038;2023-04-16T16:22:57;102302.63;;;12.53;64.15
29941;BME280;16801;53.562;10.038;2023-04-16T16:26:18;102303.19;;;12.57;64.33
29941;BME280;16801;53.562;10.038;2023-04-16T16:29:42;102301.31;;;12.40;64.50
29941;BME280;16801;53.562;10.038;2023-04-16T16:33:03;102297.41;;;12.34;65.44
29941;BME280;16801;53.562;10.038;2023-04-16T16:36:24;102297.41;;;12.34;65.25
29941;BME280;16801;53.562;10.038;2023-04-16T16:39:46;102306.19;;;12.35;65.38
29941;BME280;16801;53.562;10.038;2023-04-16T16:43:06;102304.13;;;12.28;65.78
29941;BME280;16801;53.562;10.038;2023-04-16T16:46:29;102310.22;;;12.76;76.61
29941;BME280;16801;53.562;10.038;2023-04-16T16:49:50;102309.69;;;13.27;76.64
29941;BME280;16801;53.562;10.038;2023-04-16T16:53:13;102317.78;;;13.61;70.24
29941;BME280;16801;53.562;10.038;2023-04-16T16:56:34;102305.66;;;13.76;72.15
29941;BME280;16801;53.562;10.038;2023-04-16T16:59:55;102305.28;;;14.15;70.44
29941;BME280;16801;53.562;10.038;2023-04-16T17:03:17;102303.66;;;13.96;69.70
29941;BME280;16801;53.562;10.038;2023-04-16T17:06:38;102312.09;;;14.17;68.79
29941;BME280;16801;53.562;10.038;2023-04-16T17:09:59;102309.56;;;13.90;66.76
29941;BME280;16801;53.562;10.038;2023-04-16T17:13:19;102322.09;;;13.80;64.86
29941;BME280;16801;53.562;10.038;2023-04-16T17:16:40;102331.88;;;13.44;63.08
29941;BME280;16801;53.562;10.038;2023-04-16T17:20:07;102342.28;;;13.10;64.08
29941;BME280;16801;53.562;10.038;2023-04-16T17:23:29;102342.91;;;12.94;65.02
29941;BME280;16801;53.562;10.038;2023-04-16T17:26:49;102346.03;;;12.80;64.48